This is the latest recevied weather packets stored in our database for station/object W8LMG. If no packets are shown the sender has not sent any weather packets the latest 10 day(s).
| Time | Temp. | Humidity | Pressure | Rain* | Wind** | Luminosity | Snow |
|---|---|---|---|---|---|---|---|
| 1777992256 | 20.56° C | 44% | 1015 hPa | 0 mm | - | 190 W/m² | - |
| 1777991953 | 20.56° C | 47% | 1015 hPa | 0 mm | - | 333 W/m² | - |
| 1777991650 | 20° C | 46% | 1015.2 hPa | 0 mm | - | 397 W/m² | - |
| 1777991347 | 20° C | 48% | 1015.1 hPa | 0 mm | - | 154 W/m² | - |
| 1777991044 | 20° C | 49% | 1014.9 hPa | 0 mm | - | 379 W/m² | - |
| 1777990741 | 20° C | 51% | 1015.1 hPa | 0 mm | - | 312 W/m² | - |
| 1777990439 | 20° C | 58% | 1014.8 hPa | 0 mm | - | 285 W/m² | - |
| 1777989832 | 19.44° C | 55% | 1015.2 hPa | 0 mm | - | 284 W/m² | - |
| 1777989529 | 19.44° C | 58% | 1015.2 hPa | 0 mm | - | 417 W/m² | - |
| 1777989225 | 18.89° C | 55% | 1015.3 hPa | 0 mm | - | 117 W/m² | - |
| 1777988921 | 18.33° C | 59% | 1015.2 hPa | 0 mm | - | 342 W/m² | - |
| 1777988618 | 17.78° C | 65% | 1015.3 hPa | 0 mm | - | 280 W/m² | - |
| 1777988315 | 17.22° C | 72% | 1015 hPa | 0 mm | - | 83 W/m² | - |
| 1777988012 | 16.11° C | 73% | 1015.2 hPa | 0 mm | - | 71 W/m² | - |
| 1777987707 | 13.89° C | 87% | 1015.1 hPa | 0 mm | - | 377 W/m² | - |
| 1777987405 | 12.78° C | 90% | 1015.2 hPa | 0 mm | - | 402 W/m² | - |
| 1777987102 | 11.67° C | 95% | 1015.2 hPa | 0 mm | - | 411 W/m² | - |
| 1777986799 | 11.11° C | 97% | 1015.2 hPa | 0 mm | - | 265 W/m² | - |
| 1777986497 | 10° C | 99% | 1015.1 hPa | 0 mm | - | 286 W/m² | - |
| 1777986195 | 10° C | 99% | 1015.3 hPa | 0 mm | - | 348 W/m² | - |
| 1777985892 | 8.89° C | 99% | 1015.3 hPa | 0 mm | - | 314 W/m² | - |
| 1777985589 | 8.33° C | 99% | 1015.3 hPa | 0 mm | - | 132 W/m² | - |
| 1777985285 | 7.78° C | 99% | 1015.3 hPa | 0 mm | - | 198 W/m² | - |
| 1777984982 | 7.78° C | 99% | 1015.4 hPa | 0 mm | - | 90 W/m² | - |
| 1777984678 | 7.78° C | 99% | 1015.4 hPa | 0 mm | - | 113 W/m² | - |
* Rain latest hour (hover to see other rain measurements)
** Current wind speed in m/s (hover to see current wind gust speed)